Bookmark and Share
Track history (hours):
 

Oval Lp No.11

Last reported at 2014-Apr-16 11:32 UTC. Time now 2014-Apr-17 12:37 UTC.
Position N 33°59' E 135°01'.

Length 67 m; draft 3.6 m.

Type: Ship (hazmat cat A). MMSI: 431500366.

NotesDate/timePositionNaut miles runAvg speedWind from/ knotsBaromVisibWave heightAir tempDewpointWater temp
2014-Apr-16 11:32N 33°59' E 135°01'1111.6
2014-Apr-16 10:34N 34°11' E 134°60'1210.5
2014-Apr-16 09:23N 34°23' E 135°02'1012.4
2014-Apr-16 08:34N 34°29' E 135°12'1212.0
2014-Apr-16 07:33N 34°36' E 135°23'3 3.0
2014-Apr-16 06:33N 34°34' E 135°26'0 0.0
2014-Apr-16 05:25N 34°34' E 135°26'0 0.0
2014-Apr-16 04:33N 34°34' E 135°26'1 0.8
2014-Apr-16 03:33N 34°33' E 135°26'1 0.3
2014-Apr-15 23:33N 34°33' E 135°25'2 1.8
2014-Apr-15 22:17N 34°35' E 135°23'0 0.0
2014-Apr-15 19:11N 34°35' E 135°23'0 0.0
2014-Apr-15 17:11N 34°35' E 135°23'0 0.1
2014-Apr-15 16:29N 34°35' E 135°23'0 0.0
2014-Apr-15 15:29N 34°35' E 135°23'0 0.0
2014-Apr-15 14:23N 34°35' E 135°23'0 0.0
2014-Apr-15 12:30N 34°35' E 135°23'0 0.0
2014-Apr-15 10:30N 34°35' E 135°23'0 0.0
2014-Apr-15 09:30N 34°35' E 135°23'0 0.0
2014-Apr-15 03:34N 34°35' E 135°23'0 0.0
2014-Apr-15 02:33N 34°35' E 135°23'2 1.9
2014-Apr-15 01:34N 34°36' E 135°25'2 0.8
2014-Apr-14 23:32N 34°34' E 135°26'0 0.0
2014-Apr-14 22:32N 34°34' E 135°26'5 5.2
2014-Apr-14 21:34N 34°34' E 135°19'1212.0
2014-Apr-14 20:33N 34°25' E 135°09'1212.0
2014-Apr-14 19:31N 34°16' E 134°59'1111.7
2014-Apr-14 18:32N 34°05' E 135°01'5 0.1
2014-Apr-13 06:33N 33°60' E 135°01'1212.5
2014-Apr-13 05:33N 34°12' E 134°59'1312.5
2014-Apr-13 04:31N 34°24' E 135°04'1212.8
2014-Apr-13 03:33N 34°32' E 135°16'8 8.3
2014-Apr-13 02:33N 34°34' E 135°26'0 0.0
2014-Apr-13 01:17N 34°34' E 135°26'0 0.0
2014-Apr-13 00:11N 34°34' E 135°26'0 0.1
2014-Apr-12 23:33N 34°34' E 135°26'8 7.8
2014-Apr-12 22:34N 34°32' E 135°17'1211.8
2014-Apr-12 21:33N 34°23' E 135°07'1111.4
2014-Apr-12 20:34N 34°13' E 134°60'1211.8
2014-Apr-12 19:33N 34°01' E 135°01'  
2014-Apr-10 07:13N 33°59' E 135°01'812.2
2014-Apr-10 06:33N 34°07' E 134°60'1312.6
2014-Apr-10 05:31N 34°20' E 134°60'1212.1
2014-Apr-10 04:33N 34°28' E 135°10'1110.6
2014-Apr-10 03:33N 34°36' E 135°19'0 0.1
2014-Apr-10 02:33N 34°36' E 135°19'5 5.3
2014-Apr-10 01:32N 34°34' E 135°26'0 0.0
2014-Apr-10 00:32N 34°34' E 135°26'0 0.0
2014-Apr-09 23:32N 34°34' E 135°26'1 1.5
2014-Apr-09 22:33N 34°36' E 135°25'2 1.4
2014-Apr-09 21:15N 34°36' E 135°23'0 0.0
2014-Apr-09 20:33N 34°36' E 135°23'0 0.0
2014-Apr-09 19:15N 34°36' E 135°23'0 0.1
2014-Apr-09 18:21N 34°36' E 135°23'0 0.1
2014-Apr-09 17:27N 34°36' E 135°23'2 2.5
2014-Apr-09 16:33N 34°34' E 135°21'1211.7
2014-Apr-09 15:33N 34°26' E 135°10'1211.8
2014-Apr-09 14:33N 34°18' E 135°00'1311.0
2014-Apr-09 13:22N 34°05' E 135°00'212 9.7
2014-Apr-08 15:33N 34°50' E 139°12'1211.5
2014-Apr-08 14:33N 34°58' E 139°22'1212.0
2014-Apr-08 13:33N 35°04' E 139°35'1211.8
2014-Apr-08 12:33N 35°12' E 139°46'1111.1
2014-Apr-08 11:33N 35°22' E 139°42'1111.1
2014-Apr-08 10:33N 35°30' E 139°52'8 8.2
2014-Apr-08 09:32N 35°31' E 140°03'0 0.0
2014-Apr-08 08:32N 35°31' E 140°03'0 0.0
2014-Apr-08 07:32N 35°31' E 140°03'0 0.0
2014-Apr-08 06:32N 35°31' E 140°03'0 0.0
2014-Apr-08 05:32N 35°31' E 140°03'0 0.0
2014-Apr-08 04:29N 35°31' E 140°03'0 0.0
2014-Apr-08 03:32N 35°31' E 140°03'0 0.0
2014-Apr-08 02:26N 35°31' E 140°03'4 4.8
2014-Apr-08 01:34N 35°30' E 139°57'2 1.7
2014-Apr-08 00:20N 35°29' E 139°55'0 0.0
2014-Apr-07 23:32N 35°29' E 139°55'0 0.0
2014-Apr-07 22:32N 35°29' E 139°55'0 0.0
2014-Apr-07 21:23N 35°29' E 139°55'0 0.0
2014-Apr-07 20:32N 35°29' E 139°55'0 0.1
2014-Apr-07 19:29N 35°29' E 139°55'0 0.0
2014-Apr-07 17:29N 35°29' E 139°55'0 0.1
2014-Apr-07 16:32N 35°29' E 139°55'0 0.0
2014-Apr-07 15:32N 35°29' E 139°55'0 0.0
2014-Apr-07 14:32N 35°29' E 139°55'0 0.0
2014-Apr-07 13:32N 35°29' E 139°55'0 0.0
2014-Apr-07 12:32N 35°29' E 139°55'0 0.0
2014-Apr-07 11:17N 35°29' E 139°55'4 5.5
2014-Apr-07 10:33N 35°27' E 139°51'1111.2
2014-Apr-07 09:33N 35°17' E 139°45'1111.2
2014-Apr-07 08:33N 35°06' E 139°44'1312.4
2014-Apr-07 07:33N 34°58' E 139°32'  

Dump ship's entire track history

sailing weather and tide predictions

Oval Lp No.11 — JL6306 — position and weather